Terminal Aerodrome Forecast
Issued by NWS

Home | Current Version | Previous Version | Text Only | Print | Product List | Glossary On
Versions: 1 2 3 4 5 6 7 8 9 10 11 12 13 14
000
FTUS44 KCRP 281400 AAB
TAFLRD
TAF AMD
KLRD 281416Z 2814/2912 15004KT 1SM BR BKN001
      TEMPO 2814/2815 1/4SM FG VV001
     FM281500 16007KT 2SM BR SCT002
     FM281600 18011KT P6SM FEW035
     FM290800 16007KT 5SM BR SCT010
      TEMPO 2909/2912 2SM BR BKN010=

USA.gov is the U.S. government's official web portal to all federal, state and local government web resources and services.